Time;durP1;ratioP1;P1;durP2;ratioP2;P2;SDS_P1;SDS_P2;PMS_P1;PMS_P2;Temp;Humidity;BMP_temperature;BMP_pressure;BME280_temperature;BME280_humidity;BME280_pressure;Samples;Min_cycle;Max_cycle;Signal;HPM_P1;HPM_P2
2021/05/21 00:02:24;;;;;;;4.90;1.50;;;11.20;99.90;;;;;;5052323;28;20201;-72
2021/05/21 00:04:49;;;;;;;4.87;1.70;;;11.20;99.90;;;;;;5054512;28;20540;-70
2021/05/21 00:07:15;;;;;;;4.67;1.23;;;11.10;99.90;;;;;;5046796;28;20181;-70
2021/05/21 00:09:41;;;;;;;3.90;0.90;;;11.10;99.90;;;;;;5034976;28;20170;-71
2021/05/21 00:12:07;;;;;;;4.87;1.57;;;11.10;99.90;;;;;;5040716;28;20205;-71
2021/05/21 00:14:32;;;;;;;4.73;1.17;;;11.10;99.90;;;;;;5054199;28;20548;-71
2021/05/21 00:16:58;;;;;;;4.33;1.37;;;11.10;99.90;;;;;;5049106;28;20417;-71
2021/05/21 00:19:24;;;;;;;5.07;1.40;;;11.10;99.90;;;;;;5035218;28;20170;-70
2021/05/21 00:21:49;;;;;;;5.03;1.30;;;11.00;99.90;;;;;;5037528;28;20905;-70
2021/05/21 00:24:15;;;;;;;4.60;1.20;;;11.10;99.90;;;;;;5053324;28;20280;-71
2021/05/21 00:26:41;;;;;;;5.00;1.30;;;11.10;99.90;;;;;;5035254;28;20552;-71
2021/05/21 00:29:07;;;;;;;4.47;1.15;;;11.10;99.90;;;;;;5054994;28;20205;-71
2021/05/21 00:31:33;;;;;;;4.30;1.00;;;11.10;99.90;;;;;;5036439;28;20197;-71
2021/05/21 00:34:00;;;;;;;4.38;1.20;;;11.20;99.90;;;;;;5034038;28;20261;-71
2021/05/21 00:36:26;;;;;;;5.97;0.98;;;11.10;99.90;;;;;;5034225;28;20174;-71
2021/05/21 00:38:51;;;;;;;5.30;1.20;;;11.20;99.90;;;;;;5052055;28;20625;-71
2021/05/21 00:41:21;;;;;;;6.30;1.20;;;11.20;99.90;;;;;;5034488;28;20186;-70
2021/05/21 00:43:47;;;;;;;4.30;1.02;;;11.20;99.90;;;;;;5050317;28;20243;-70
2021/05/21 00:46:13;;;;;;;4.87;1.30;;;11.20;99.90;;;;;;5043944;28;20602;-70
2021/05/21 00:48:38;;;;;;;4.63;1.40;;;11.20;99.90;;;;;;5054398;28;20494;-71
2021/05/21 00:51:04;;;;;;;4.30;1.10;;;11.20;99.90;;;;;;5050605;28;20628;-70
2021/05/21 00:53:31;;;;;;;7.20;1.13;;;11.20;99.90;;;;;;5015989;28;20185;-70
2021/05/21 00:56:01;;;;;;;5.68;1.60;;;11.20;99.90;;;;;;5017417;28;20459;-71
2021/05/21 00:58:27;;;;;;;5.20;1.40;;;11.20;99.90;;;;;;5052592;28;20189;-71
2021/05/21 01:00:54;;;;;;;3.92;0.70;;;11.20;99.90;;;;;;5052699;28;20256;-70
2021/05/21 01:03:20;;;;;;;5.47;1.20;;;11.20;99.90;;;;;;5033591;28;20288;-70
2021/05/21 01:05:46;;;;;;;5.13;1.63;;;11.20;99.90;;;;;;5033674;28;20193;-72
2021/05/21 01:08:13;;;;;;;6.73;1.10;;;11.30;99.90;;;;;;5051881;28;20188;-70
2021/05/21 01:10:39;;;;;;;6.32;1.63;;;11.30;99.90;;;;;;5036511;28;20620;-70
2021/05/21 01:13:04;;;;;;;4.60;0.90;;;11.30;99.90;;;;;;5048796;28;20248;-70
2021/05/21 01:15:36;;;;;;;4.53;1.10;;;11.30;99.90;;;;;;5053305;28;20238;-71
2021/05/21 01:18:03;;;;;;;4.47;1.10;;;11.30;99.90;;;;;;5036888;28;20174;-70
2021/05/21 01:20:32;;;;;;;4.40;0.82;;;11.20;99.90;;;;;;5041271;28;20225;-71
2021/05/21 01:22:59;;;;;;;4.90;0.98;;;11.30;99.90;;;;;;5037458;28;20174;-73
2021/05/21 01:25:25;;;;;;;4.65;1.13;;;11.30;99.90;;;;;;5033472;28;20289;-71
2021/05/21 01:27:54;;;;;;;5.40;1.27;;;11.30;99.90;;;;;;5046741;28;20269;-71
2021/05/21 01:30:20;;;;;;;4.63;1.02;;;11.30;99.90;;;;;;5025395;28;20209;-70
2021/05/21 01:32:47;;;;;;;4.88;1.20;;;11.30;99.90;;;;;;5033464;28;20206;-70
2021/05/21 01:35:15;;;;;;;4.70;1.15;;;11.30;99.90;;;;;;5015367;28;20676;-70
2021/05/21 01:37:43;;;;;;;4.57;1.30;;;11.30;99.90;;;;;;5034483;28;20174;-70
2021/05/21 01:40:11;;;;;;;4.55;1.05;;;11.30;99.90;;;;;;5040218;28;20219;-70
2021/05/21 01:42:37;;;;;;;4.80;1.40;;;11.30;99.90;;;;;;5053164;28;20276;-70
2021/05/21 01:45:03;;;;;;;4.50;1.20;;;11.30;99.90;;;;;;5050671;28;20275;-70
2021/05/21 01:47:29;;;;;;;4.10;0.70;;;11.40;99.90;;;;;;5052838;28;20408;-69
2021/05/21 01:49:55;;;;;;;4.57;1.20;;;11.40;99.90;;;;;;5031332;28;20187;-70
2021/05/21 01:52:20;;;;;;;4.30;0.90;;;11.40;99.90;;;;;;5052893;28;20525;-70
2021/05/21 01:54:46;;;;;;;4.50;1.10;;;11.50;99.90;;;;;;5048316;28;20435;-70
2021/05/21 01:57:12;;;;;;;4.60;1.10;;;11.50;99.90;;;;;;5033124;28;20655;-71
2021/05/21 01:59:38;;;;;;;4.53;1.23;;;11.50;99.90;;;;;;5036068;28;20648;-71
2021/05/21 02:02:06;;;;;;;4.85;0.82;;;11.60;99.90;;;;;;5052962;28;20207;-71
2021/05/21 02:04:37;;;;;;;4.30;0.95;;;11.60;99.90;;;;;;5032962;28;20189;-70
2021/05/21 02:07:04;;;;;;;4.13;0.70;;;11.70;99.90;;;;;;5033061;28;20185;-71
2021/05/21 02:10:00;;;;;;;4.03;0.77;;;11.70;99.90;;;;;;5033482;28;20177;-70
2021/05/21 02:12:27;;;;;;;4.25;1.00;;;11.80;99.90;;;;;;5046525;28;20206;-70
2021/05/21 02:14:53;;;;;;;6.25;1.30;;;11.80;99.90;;;;;;5048800;28;20720;-70
2021/05/21 02:17:19;;;;;;;4.70;1.10;;;11.90;99.90;;;;;;5033056;28;20178;-69
2021/05/21 02:19:45;;;;;;;4.10;0.70;;;11.90;99.90;;;;;;5034984;28;20166;-70
2021/05/21 02:22:12;;;;;;;4.10;0.80;;;11.90;99.90;;;;;;5056497;28;20203;-69
2021/05/21 02:24:40;;;;;;;3.95;0.70;;;11.90;99.90;;;;;;5055930;28;20204;-71
2021/05/21 02:27:06;;;;;;;4.30;0.80;;;12.00;99.90;;;;;;5056715;28;20236;-70
2021/05/21 02:29:32;;;;;;;4.30;0.70;;;12.00;99.90;;;;;;5056806;28;20193;-70
2021/05/21 02:31:57;;;;;;;3.93;0.70;;;12.10;99.90;;;;;;5037528;28;20537;-69
2021/05/21 02:34:23;;;;;;;4.00;0.60;;;12.20;99.90;;;;;;5035970;28;20648;-70
2021/05/21 02:36:49;;;;;;;5.00;1.40;;;12.30;99.90;;;;;;5025109;28;20196;-69
2021/05/21 02:39:18;;;;;;;4.30;0.90;;;12.30;99.90;;;;;;5036374;28;20805;-69
2021/05/21 02:41:43;;;;;;;6.15;0.70;;;12.40;99.90;;;;;;5051590;28;20181;-69
2021/05/21 02:44:09;;;;;;;4.10;0.83;;;12.50;99.90;;;;;;5055904;28;20255;-69
2021/05/21 02:46:35;;;;;;;4.33;0.87;;;12.50;99.90;;;;;;5042029;28;20193;-69
2021/05/21 02:49:01;;;;;;;4.20;0.90;;;12.60;99.90;;;;;;5036651;28;20419;-70
2021/05/21 02:51:26;;;;;;;4.23;1.10;;;12.60;99.90;;;;;;5051793;28;20251;-69
2021/05/21 02:53:52;;;;;;;4.37;0.70;;;12.50;99.90;;;;;;5052537;28;20252;-68
2021/05/21 02:56:17;;;;;;;4.17;0.80;;;12.50;99.90;;;;;;5036114;28;20194;-69
2021/05/21 02:58:43;;;;;;;4.70;0.70;;;12.50;99.90;;;;;;5037182;28;20700;-69
2021/05/21 03:01:09;;;;;;;4.30;1.17;;;12.50;99.90;;;;;;5056076;28;20169;-70
2021/05/21 03:03:34;;;;;;;4.07;0.87;;;12.40;99.90;;;;;;5055232;28;20508;-70
2021/05/21 03:06:00;;;;;;;4.93;1.10;;;12.40;99.90;;;;;;5018093;28;20238;-70
2021/05/21 03:08:26;;;;;;;4.17;0.90;;;12.40;99.90;;;;;;5035964;28;20174;-70
2021/05/21 03:10:51;;;;;;;3.93;0.80;;;12.40;99.90;;;;;;5053459;28;20201;-69
2021/05/21 03:13:19;;;;;;;4.27;0.87;;;12.40;99.90;;;;;;5040982;28;20209;-71
2021/05/21 03:15:46;;;;;;;3.90;0.70;;;12.40;99.90;;;;;;5051983;28;20201;-70
2021/05/21 03:18:23;;;;;;;4.45;1.02;;;12.40;99.90;;;;;;5055498;28;20644;-71
2021/05/21 03:20:50;;;;;;;5.35;0.68;;;12.40;99.90;;;;;;5038675;28;20640;-70
2021/05/21 03:23:16;;;;;;;4.90;0.75;;;12.50;99.90;;;;;;5035547;28;20170;-70
2021/05/21 03:25:43;;;;;;;13.07;0.82;;;12.50;99.90;;;;;;5050572;28;20216;-70
2021/05/21 03:28:10;;;;;;;3.90;0.77;;;12.60;99.90;;;;;;5054134;28;20193;-68
2021/05/21 03:30:37;;;;;;;4.20;0.80;;;12.60;99.80;;;;;;5040652;28;20232;-70
2021/05/21 03:33:03;;;;;;;4.22;0.90;;;12.60;99.80;;;;;;5035246;28;20178;-70
2021/05/21 03:35:28;;;;;;;4.57;0.97;;;12.60;99.90;;;;;;5047291;28;20281;-68
2021/05/21 03:37:54;;;;;;;4.17;1.10;;;12.60;99.50;;;;;;5035799;28;20535;-69
2021/05/21 03:40:20;;;;;;;3.80;0.60;;;12.60;99.40;;;;;;5044003;28;20169;-69
2021/05/21 03:42:46;;;;;;;4.40;1.40;;;12.60;99.60;;;;;;5055342;28;20204;-69
2021/05/21 03:45:12;;;;;;;4.27;1.00;;;12.60;99.90;;;;;;5045266;28;20205;-69
2021/05/21 03:47:38;;;;;;;4.40;1.15;;;12.60;99.90;;;;;;5034985;28;20408;-69
2021/05/21 03:50:05;;;;;;;4.10;1.00;;;12.50;99.70;;;;;;5042128;28;20177;-69
2021/05/21 03:52:30;;;;;;;4.20;0.85;;;12.50;99.90;;;;;;5055313;28;20559;-69
2021/05/21 03:54:56;;;;;;;4.27;0.73;;;12.50;99.90;;;;;;5039461;28;20205;-69
2021/05/21 03:57:22;;;;;;;4.70;1.10;;;12.40;99.90;;;;;;5035285;28;20257;-70
2021/05/21 03:59:49;;;;;;;5.03;0.83;;;12.40;99.90;;;;;;5038625;28;20416;-69
2021/05/21 04:02:16;;;;;;;4.35;1.15;;;12.40;99.90;;;;;;5035098;28;20162;-70
2021/05/21 04:04:41;;;;;;;5.13;0.90;;;12.30;99.90;;;;;;5045856;28;20330;-70
2021/05/21 04:07:07;;;;;;;3.80;0.57;;;12.20;99.90;;;;;;5055330;28;20633;-69
2021/05/21 04:09:33;;;;;;;3.85;0.80;;;12.20;99.90;;;;;;5044584;28;20539;-70
2021/05/21 04:11:59;;;;;;;4.40;1.13;;;12.30;99.90;;;;;;5034786;28;20193;-71
2021/05/21 04:14:25;;;;;;;4.93;1.10;;;12.30;99.90;;;;;;5041945;28;20438;-70
2021/05/21 04:16:51;;;;;;;4.53;0.67;;;12.40;99.90;;;;;;5054635;28;20917;-70
2021/05/21 04:19:16;;;;;;;4.60;1.00;;;12.40;99.90;;;;;;5047606;28;20528;-70
2021/05/21 04:21:42;;;;;;;4.30;0.77;;;12.50;99.90;;;;;;5036575;28;20212;-70
2021/05/21 04:24:08;;;;;;;5.07;1.30;;;12.50;99.90;;;;;;5045530;28;20660;-70
2021/05/21 04:26:34;;;;;;;4.75;1.00;;;12.60;99.90;;;;;;5051626;28;20189;-69
2021/05/21 04:29:00;;;;;;;4.10;0.80;;;12.60;99.90;;;;;;5034630;28;20170;-69
2021/05/21 04:31:26;;;;;;;4.30;1.10;;;12.60;99.60;;;;;;5034936;28;20211;-70
2021/05/21 04:33:52;;;;;;;4.67;0.77;;;12.70;99.70;;;;;;5054013;28;20251;-69
2021/05/21 04:36:18;;;;;;;5.70;0.80;;;12.70;99.80;;;;;;5054193;28;20431;-70
2021/05/21 04:38:44;;;;;;;7.13;2.13;;;12.70;99.60;;;;;;5034500;28;20223;-70
2021/05/21 04:41:10;;;;;;;4.20;1.00;;;12.70;99.70;;;;;;5034320;28;20257;-68
2021/05/21 04:43:35;;;;;;;3.90;0.80;;;12.80;99.90;;;;;;5050716;28;20420;-70
2021/05/21 04:46:02;;;;;;;4.20;0.87;;;12.80;99.40;;;;;;5042252;28;20556;-71
2021/05/21 04:48:28;;;;;;;4.13;0.82;;;12.90;99.50;;;;;;5034193;28;20217;-70
2021/05/21 04:50:56;;;;;;;3.90;0.50;;;12.90;99.60;;;;;;5042141;28;20198;-71
2021/05/21 04:53:22;;;;;;;4.20;0.80;;;13.00;99.80;;;;;;5053953;28;20162;-69
2021/05/21 04:55:48;;;;;;;4.40;1.03;;;13.00;99.20;;;;;;5046775;28;20439;-70
2021/05/21 04:58:13;;;;;;;4.80;1.10;;;13.00;99.40;;;;;;5034043;28;20170;-70
2021/05/21 05:00:40;;;;;;;5.93;1.10;;;13.10;99.70;;;;;;5039754;28;20176;-70
2021/05/21 05:03:12;;;;;;;4.17;0.90;;;13.10;99.30;;;;;;5033627;28;20160;-71
2021/05/21 05:05:37;;;;;;;4.50;0.90;;;13.20;99.00;;;;;;5037883;28;20479;-73
2021/05/21 05:08:03;;;;;;;3.90;0.60;;;13.20;98.90;;;;;;5050395;28;20171;-70
2021/05/21 05:10:32;;;;;;;3.90;0.77;;;13.30;98.80;;;;;;5036321;28;20182;-72
2021/05/21 05:12:58;;;;;;;4.28;0.88;;;13.40;98.50;;;;;;5053519;28;20814;-72
2021/05/21 05:15:32;;;;;;;4.30;1.20;;;13.50;98.50;;;;;;5053063;28;20251;-71
2021/05/21 05:18:06;;;;;;;4.20;1.10;;;13.50;98.30;;;;;;5053565;28;20228;-69
2021/05/21 05:20:31;;;;;;;5.87;1.10;;;13.60;98.20;;;;;;5051350;28;20904;-71
2021/05/21 05:22:57;;;;;;;4.60;1.00;;;13.70;97.90;;;;;;5037722;28;20413;-71
2021/05/21 05:25:23;;;;;;;4.00;0.70;;;13.70;97.90;;;;;;5045622;28;20203;-69
2021/05/21 05:27:52;;;;;;;3.80;0.67;;;13.80;97.90;;;;;;5053184;28;20179;-70
2021/05/21 05:30:22;;;;;;;5.60;1.00;;;13.90;97.90;;;;;;5053513;28;20404;-70
2021/05/21 05:32:50;;;;;;;3.73;0.70;;;13.90;97.40;;;;;;5033526;28;20801;-70
2021/05/21 05:35:16;;;;;;;4.00;1.10;;;14.00;97.70;;;;;;5014997;28;20443;-70
2021/05/21 05:37:42;;;;;;;4.43;1.40;;;14.10;97.40;;;;;;5034385;28;20414;-70
2021/05/21 05:40:09;;;;;;;3.63;0.77;;;14.10;97.00;;;;;;5033423;28;20493;-70
2021/05/21 05:42:35;;;;;;;4.20;1.17;;;14.10;97.40;;;;;;5049834;28;20517;-71
2021/05/21 05:45:00;;;;;;;4.37;0.80;;;14.10;97.00;;;;;;5052672;28;20479;-70
2021/05/21 05:47:26;;;;;;;3.70;0.80;;;14.10;97.20;;;;;;5037748;28;20421;-70
2021/05/21 05:49:52;;;;;;;4.37;0.90;;;14.20;96.90;;;;;;5043648;28;20179;-70
2021/05/21 05:52:17;;;;;;;3.80;0.80;;;14.10;97.10;;;;;;5039220;28;20208;-70
2021/05/21 05:54:43;;;;;;;4.00;0.90;;;14.20;96.70;;;;;;5043743;28;20208;-70
2021/05/21 05:57:09;;;;;;;3.50;0.63;;;14.20;96.70;;;;;;5056893;28;20171;-71
2021/05/21 05:59:36;;;;;;;3.73;0.60;;;14.30;96.90;;;;;;5048903;28;20479;-72
2021/05/21 06:02:01;;;;;;;4.23;1.30;;;14.30;96.70;;;;;;5057207;28;20473;-68
2021/05/21 06:04:27;;;;;;;3.90;0.80;;;14.30;96.40;;;;;;5030223;28;20448;-70
2021/05/21 06:06:53;;;;;;;4.00;0.77;;;14.30;96.50;;;;;;5037146;28;20267;-69
2021/05/21 06:09:19;;;;;;;3.50;0.50;;;14.30;96.10;;;;;;5048687;28;20206;-69
2021/05/21 06:11:44;;;;;;;4.17;0.97;;;14.40;96.20;;;;;;5056844;28;20207;-69
2021/05/21 06:14:10;;;;;;;4.07;0.80;;;14.40;96.10;;;;;;5045918;28;20183;-68
2021/05/21 06:16:36;;;;;;;5.73;0.90;;;14.50;96.10;;;;;;5041306;28;20197;-70
2021/05/21 06:19:02;;;;;;;3.80;0.73;;;14.60;95.90;;;;;;5036430;28;20183;-68
2021/05/21 06:21:27;;;;;;;3.90;0.97;;;14.70;95.90;;;;;;5043863;28;20185;-67
2021/05/21 06:23:53;;;;;;;5.83;0.93;;;14.90;95.50;;;;;;5044231;28;20518;-71
2021/05/21 06:28:54;;;;;;;3.80;0.80;;;15.10;95.60;;;;;;5036778;28;20536;-70
2021/05/21 06:31:21;;;;;;;5.77;1.13;;;15.20;95.40;;;;;;5048699;28;20466;-73
2021/05/21 06:33:47;;;;;;;7.43;2.90;;;15.30;95.30;;;;;;5039850;28;20424;-70
2021/05/21 06:36:12;;;;;;;3.87;1.00;;;15.30;95.50;;;;;;5054057;28;20533;-70
2021/05/21 06:38:39;;;;;;;3.67;0.80;;;15.40;95.20;;;;;;5016426;28;20516;-71
2021/05/21 06:41:05;;;;;;;3.60;0.70;;;15.40;94.70;;;;;;5037009;28;20228;-71
2021/05/21 06:43:32;;;;;;;3.70;0.80;;;15.40;95.00;;;;;;5035808;28;20756;-70
2021/05/21 06:45:58;;;;;;;12.63;1.73;;;15.40;94.90;;;;;;5035546;28;20498;-72
2021/05/21 06:48:32;;;;;;;3.90;0.80;;;15.40;95.10;;;;;;5036113;28;20486;-68
2021/05/21 06:51:04;;;;;;;3.57;0.73;;;15.40;95.30;;;;;;5036070;28;20459;-71
2021/05/21 06:53:30;;;;;;;4.30;0.80;;;15.40;95.40;;;;;;5037467;28;20455;-72
2021/05/21 06:55:56;;;;;;;4.47;1.00;;;15.40;95.30;;;;;;5045688;28;20600;-69
2021/05/21 06:58:24;;;;;;;5.30;1.67;;;15.40;95.80;;;;;;5042333;28;20438;-72
2021/05/21 07:00:50;;;;;;;3.80;0.67;;;15.40;95.60;;;;;;5055903;28;20443;-69
2021/05/21 07:03:17;;;;;;;3.90;1.00;;;15.50;95.10;;;;;;5040341;28;20427;-67
2021/05/21 07:05:43;;;;;;;3.63;0.70;;;15.60;95.00;;;;;;5046196;28;20449;-68
2021/05/21 07:08:13;;;;;;;4.63;0.70;;;15.70;94.70;;;;;;5054355;28;20472;-68
2021/05/21 07:10:39;;;;;;;3.57;0.73;;;15.70;94.10;;;;;;5016813;28;20466;-69
2021/05/21 07:13:14;;;;;;;3.60;0.80;;;15.80;94.30;;;;;;5035583;28;20408;-69
2021/05/21 07:15:40;;;;;;;4.00;0.80;;;15.90;94.00;;;;;;5038508;28;20586;-70
2021/05/21 07:18:07;;;;;;;3.50;0.60;;;15.90;93.00;;;;;;5035136;28;20420;-68
2021/05/21 07:20:33;;;;;;;4.03;1.10;;;16.00;93.60;;;;;;5036199;28;20416;-68
2021/05/21 07:22:59;;;;;;;3.70;0.70;;;16.00;93.00;;;;;;5042446;28;20422;-72
2021/05/21 07:25:25;;;;;;;4.20;0.80;;;16.00;92.50;;;;;;5054105;28;20762;-69
2021/05/21 07:27:51;;;;;;;4.90;0.70;;;16.10;92.40;;;;;;5050756;28;20650;-68
2021/05/21 07:30:18;;;;;;;3.90;0.70;;;16.00;92.40;;;;;;5035211;28;20416;-68
2021/05/21 07:32:44;;;;;;;3.93;1.07;;;16.00;92.70;;;;;;5020852;28;20538;-69
2021/05/21 07:35:10;;;;;;;3.40;0.60;;;16.00;92.80;;;;;;5038080;28;20845;-68
2021/05/21 07:37:36;;;;;;;4.43;0.60;;;16.00;91.50;;;;;;5034939;28;20511;-68
2021/05/21 07:40:06;;;;;;;4.00;1.00;;;16.10;91.80;;;;;;5034958;28;20499;-67
2021/05/21 07:42:33;;;;;;;4.10;1.00;;;16.10;91.70;;;;;;5050947;28;20173;-68
2021/05/21 07:44:59;;;;;;;6.00;1.77;;;16.20;91.80;;;;;;5031420;28;20949;-74
2021/05/21 07:47:25;;;;;;;4.70;1.50;;;16.20;91.60;;;;;;5047950;28;20432;-69
2021/05/21 07:49:50;;;;;;;4.50;1.53;;;16.20;91.00;;;;;;5055082;28;20411;-70
2021/05/21 07:52:16;;;;;;;3.83;0.83;;;16.20;91.20;;;;;;5045982;28;20210;-69
2021/05/21 07:54:41;;;;;;;3.63;0.63;;;16.20;90.90;;;;;;5034426;28;20190;-71
2021/05/21 07:57:07;;;;;;;3.50;0.87;;;16.20;91.30;;;;;;5015254;28;20173;-69
2021/05/21 07:59:33;;;;;;;5.40;1.00;;;16.20;91.70;;;;;;5035017;28;20558;-68
2021/05/21 08:01:59;;;;;;;3.40;0.70;;;16.20;91.30;;;;;;5035363;28;20176;-69
2021/05/21 08:04:25;;;;;;;6.23;0.63;;;16.20;91.10;;;;;;5035762;28;20438;-68
2021/05/21 08:06:51;;;;;;;3.80;1.00;;;16.20;90.90;;;;;;5036847;28;20424;-69
2021/05/21 08:09:17;;;;;;;3.60;0.70;;;16.20;91.00;;;;;;5054170;28;20185;-68
2021/05/21 08:11:43;;;;;;;4.20;1.17;;;16.20;91.30;;;;;;5054282;28;20440;-68
2021/05/21 08:14:10;;;;;;;3.60;0.90;;;16.30;91.80;;;;;;5053766;28;20415;-69
2021/05/21 08:16:37;;;;;;;3.87;0.70;;;16.30;92.00;;;;;;5054195;28;20403;-69
2021/05/21 08:19:03;;;;;;;3.47;0.60;;;16.30;91.80;;;;;;5053194;28;20558;-68
2021/05/21 08:21:29;;;;;;;4.10;0.80;;;16.30;92.00;;;;;;5054539;28;20407;-68
2021/05/21 08:23:55;;;;;;;5.43;1.00;;;16.40;91.40;;;;;;5031486;28;20421;-69
2021/05/21 08:26:25;;;;;;;3.60;0.60;;;16.40;91.50;;;;;;5033094;28;20572;-69
2021/05/21 08:28:51;;;;;;;3.50;0.63;;;16.40;91.90;;;;;;5034398;28;20491;-69
2021/05/21 08:31:17;;;;;;;3.70;0.83;;;16.40;92.10;;;;;;5034610;28;20869;-69
2021/05/21 08:33:45;;;;;;;3.70;0.70;;;16.40;92.30;;;;;;5052355;28;20511;-70
2021/05/21 08:36:11;;;;;;;3.70;1.00;;;16.40;92.20;;;;;;5054420;28;20250;-69
2021/05/21 08:38:49;;;;;;;3.50;0.80;;;16.40;92.60;;;;;;5054362;28;20397;-69
2021/05/21 08:41:26;;;;;;;4.07;0.80;;;16.50;92.80;;;;;;5054319;28;20426;-70
2021/05/21 08:43:53;;;;;;;3.50;0.67;;;16.50;92.80;;;;;;5053982;28;20406;-68
2021/05/21 08:46:20;;;;;;;3.60;0.70;;;16.50;93.00;;;;;;5052173;28;20440;-69
2021/05/21 08:48:46;;;;;;;4.40;1.40;;;16.50;93.00;;;;;;5035134;28;20442;-68
2021/05/21 08:51:14;;;;;;;5.97;1.90;;;16.50;93.40;;;;;;5053169;28;20479;-70
2021/05/21 08:53:41;;;;;;;3.50;0.67;;;16.40;93.30;;;;;;5053260;28;20400;-71
2021/05/21 08:56:08;;;;;;;6.23;0.87;;;16.50;93.00;;;;;;5033556;28;20429;-71
2021/05/21 08:58:34;;;;;;;4.07;0.87;;;16.50;92.50;;;;;;5034529;28;20496;-70
2021/05/21 09:01:01;;;;;;;5.00;1.30;;;16.50;92.60;;;;;;5036395;28;20424;-70
2021/05/21 09:03:28;;;;;;;3.50;0.70;;;16.50;93.40;;;;;;5017653;28;20474;-68
2021/05/21 09:06:07;;;;;;;3.70;0.93;;;16.50;93.80;;;;;;5033256;28;20429;-70
2021/05/21 09:08:43;;;;;;;4.93;1.93;;;16.40;94.20;;;;;;5032950;28;20429;-71
2021/05/21 09:11:35;;;;;;;3.80;0.80;;;16.40;93.70;;;;;;5033643;28;20444;-71
2021/05/21 09:14:04;;;;;;;7.50;1.20;;;16.30;93.50;;;;;;5032954;28;20415;-72
2021/05/21 09:16:35;;;;;;;3.97;0.80;;;16.30;93.20;;;;;;5032390;28;20473;-70
2021/05/21 09:19:09;;;;;;;4.43;0.80;;;16.40;93.50;;;;;;5028490;28;20408;-71
2021/05/21 09:22:03;;;;;;;3.73;0.90;;;16.40;93.60;;;;;;5047298;28;20463;-69
2021/05/21 09:24:40;;;;;;;3.63;0.80;;;16.40;92.90;;;;;;5036622;28;20431;-71
2021/05/21 09:27:07;;;;;;;3.67;0.77;;;16.40;93.50;;;;;;5033007;28;20507;-69
2021/05/21 09:29:37;;;;;;;3.80;0.80;;;16.40;93.20;;;;;;5051482;28;20407;-69
2021/05/21 09:32:27;;;;;;;3.83;0.70;;;16.50;93.30;;;;;;5038378;28;20451;-70
2021/05/21 09:35:22;;;;;;;4.57;0.70;;;16.50;92.90;;;;;;5031326;28;20429;-68
2021/05/21 09:37:54;;;;;;;3.67;0.63;;;16.50;92.70;;;;;;5022345;28;20830;-65
2021/05/21 09:40:20;;;;;;;4.33;0.90;;;16.60;93.00;;;;;;5031879;28;20766;-66
2021/05/21 09:43:20;;;;;;;5.33;1.00;;;16.60;93.00;;;;;;5033126;28;20420;-65
2021/05/21 09:45:46;;;;;;;3.60;0.50;;;16.60;92.30;;;;;;5028254;28;20515;-75
2021/05/21 09:48:12;;;;;;;3.50;0.67;;;16.60;92.30;;;;;;5019210;28;20425;-74
2021/05/21 09:50:41;;;;;;;3.40;0.50;;;16.60;92.60;;;;;;5031574;28;20184;-75
2021/05/21 09:53:16;;;;;;;3.60;0.70;;;16.60;93.30;;;;;;5008285;28;20188;-74
2021/05/21 09:55:43;;;;;;;3.63;0.70;;;16.60;93.30;;;;;;5021771;28;20434;-66
2021/05/21 09:58:21;;;;;;;3.40;0.60;;;16.60;93.00;;;;;;5031053;28;20408;-70
2021/05/21 10:01:17;;;;;;;3.60;0.50;;;16.60;92.50;;;;;;5023200;28;20512;-67
2021/05/21 10:03:49;;;;;;;3.50;0.53;;;16.60;92.60;;;;;;5029543;28;20415;-71
2021/05/21 10:06:17;;;;;;;3.80;0.70;;;16.60;93.00;;;;;;5030154;28;20432;-71
2021/05/21 10:08:45;;;;;;;3.50;0.50;;;16.60;93.70;;;;;;5028941;28;20412;-72
2021/05/21 10:11:11;;;;;;;3.37;0.40;;;16.60;92.90;;;;;;5029420;28;20456;-72
2021/05/21 10:13:39;;;;;;;3.83;0.90;;;16.70;92.80;;;;;;5029085;28;20502;-71
2021/05/21 10:16:05;;;;;;;3.50;0.60;;;16.60;92.90;;;;;;5024196;28;20463;-71
2021/05/21 10:18:34;;;;;;;3.80;0.60;;;16.60;92.40;;;;;;5024414;28;20413;-68
2021/05/21 10:21:00;;;;;;;3.40;0.60;;;16.60;91.70;;;;;;5029614;28;20416;-67
2021/05/21 10:23:36;;;;;;;3.77;0.47;;;16.60;92.00;;;;;;5025010;28;20424;-68
2021/05/21 10:26:09;;;;;;;5.73;1.93;;;16.60;92.00;;;;;;5032332;28;20443;-70
2021/05/21 10:28:38;;;;;;;3.80;0.80;;;16.60;92.00;;;;;;5033022;28;20421;-72
2021/05/21 10:31:04;;;;;;;3.73;0.87;;;16.60;92.20;;;;;;5032675;28;20448;-71
2021/05/21 10:33:36;;;;;;;3.57;0.80;;;16.70;92.10;;;;;;5014644;28;20938;-71
2021/05/21 10:36:22;;;;;;;3.37;0.60;;;16.60;92.20;;;;;;5014346;28;20512;-70
2021/05/21 10:39:18;;;;;;;12.27;1.13;;;16.60;92.60;;;;;;5034736;28;20411;-66
2021/05/21 10:41:55;;;;;;;3.40;0.63;;;16.70;93.20;;;;;;5029694;28;20906;-68
2021/05/21 10:44:22;;;;;;;6.50;2.10;;;16.70;92.90;;;;;;5039196;28;20435;-69
2021/05/21 10:47:11;;;;;;;5.33;0.87;;;16.80;92.70;;;;;;5035969;28;20397;-70
2021/05/21 10:49:37;;;;;;;3.60;0.70;;;16.90;92.90;;;;;;5031252;28;20424;-68
2021/05/21 10:52:03;;;;;;;6.13;0.90;;;17.00;93.10;;;;;;5036120;28;20444;-67
2021/05/21 10:54:40;;;;;;;4.90;0.80;;;17.00;92.70;;;;;;5035766;28;20186;-70
2021/05/21 10:57:10;;;;;;;4.20;0.90;;;17.10;92.70;;;;;;5035262;28;20437;-68
2021/05/21 10:59:56;;;;;;;6.23;2.20;;;17.20;92.70;;;;;;5035969;28;20170;-68
2021/05/21 11:02:43;;;;;;;3.77;0.80;;;17.30;92.70;;;;;;5035661;28;20417;-68
2021/05/21 11:05:36;;;;;;;3.57;0.70;;;17.40;93.30;;;;;;5035277;28;20436;-67
2021/05/21 11:08:04;;;;;;;3.50;0.60;;;17.50;92.90;;;;;;5019610;28;20438;-68
2021/05/21 11:10:33;;;;;;;3.97;0.60;;;17.60;93.60;;;;;;5055562;28;20405;-68
2021/05/21 11:13:11;;;;;;;3.50;0.60;;;17.80;93.50;;;;;;5054119;28;20445;-71
2021/05/21 11:15:39;;;;;;;3.73;0.70;;;17.90;93.80;;;;;;5040323;28;20430;-68
2021/05/21 11:18:12;;;;;;;6.40;1.00;;;18.20;92.90;;;;;;5035175;28;20424;-69
2021/05/21 11:20:56;;;;;;;3.70;0.60;;;18.30;93.30;;;;;;5035483;28;20822;-66
2021/05/21 11:23:27;;;;;;;3.60;0.70;;;18.50;93.00;;;;;;5028036;28;20522;-69
2021/05/21 11:26:03;;;;;;;3.40;0.60;;;18.60;92.30;;;;;;5017485;28;20848;-67
2021/05/21 11:28:49;;;;;;;3.30;0.40;;;18.70;92.00;;;;;;5032704;28;20449;-70
2021/05/21 11:31:30;;;;;;;3.57;0.57;;;18.70;91.60;;;;;;5035547;28;20473;-67
2021/05/21 11:33:59;;;;;;;4.07;0.70;;;18.70;91.70;;;;;;5033771;28;20433;-78
2021/05/21 11:36:26;;;;;;;3.40;0.50;;;18.70;92.00;;;;;;5028971;28;20447;-72
2021/05/21 11:38:52;;;;;;;4.10;0.87;;;18.70;93.00;;;;;;5040530;28;20446;-66
2021/05/21 11:41:27;;;;;;;3.50;0.63;;;18.90;92.70;;;;;;5043729;28;20440;-68
2021/05/21 11:43:53;;;;;;;3.23;0.40;;;19.10;92.10;;;;;;5035950;28;20431;-64
2021/05/21 11:46:20;;;;;;;9.03;1.23;;;19.30;91.30;;;;;;5035056;28;21009;-64
2021/05/21 11:48:48;;;;;;;3.33;0.57;;;19.50;91.00;;;;;;5042893;28;20227;-65
2021/05/21 11:51:22;;;;;;;3.50;0.87;;;19.60;91.30;;;;;;5043519;28;20487;-67
2021/05/21 11:53:51;;;;;;;3.50;0.70;;;19.80;90.60;;;;;;5036457;28;20419;-65
2021/05/21 11:56:32;;;;;;;3.40;0.60;;;19.70;89.50;;;;;;5039088;28;20476;-65
2021/05/21 11:59:01;;;;;;;3.47;0.60;;;19.60;89.50;;;;;;5015154;28;20421;-69
2021/05/21 12:04:08;;;;;;;5.37;0.70;;;19.30;88.50;;;;;;6008674;23;20508;-71
2021/05/21 12:06:36;;;;;;;3.23;0.50;;;19.10;88.20;;;;;;4987990;28;20441;-73
2021/05/21 12:09:06;;;;;;;3.30;0.50;;;19.00;87.30;;;;;;4998778;28;20504;-70
2021/05/21 12:11:33;;;;;;;3.50;0.70;;;18.70;88.50;;;;;;4995651;28;20460;-71
2021/05/21 12:14:02;;;;;;;3.60;0.60;;;18.60;88.40;;;;;;5001634;28;20530;-71
2021/05/21 12:16:30;;;;;;;3.20;0.60;;;18.50;88.30;;;;;;5008199;28;20810;-72
2021/05/21 12:18:56;;;;;;;3.27;0.53;;;18.50;89.20;;;;;;5015743;28;20439;-70
2021/05/21 12:21:30;;;;;;;3.40;0.70;;;18.50;87.10;;;;;;5014721;28;20461;-71
2021/05/21 12:23:57;;;;;;;3.23;0.53;;;18.30;85.70;;;;;;5014401;28;21015;-71
2021/05/21 12:26:26;;;;;;;3.80;0.77;;;18.30;85.90;;;;;;4996368;28;20939;-70
2021/05/21 12:28:54;;;;;;;5.10;0.50;;;18.30;87.10;;;;;;5014472;28;20444;-69
2021/05/21 12:31:28;;;;;;;3.10;0.40;;;18.40;88.20;;;;;;5005740;28;20461;-70
2021/05/21 12:33:55;;;;;;;3.30;0.60;;;18.50;88.60;;;;;;5007685;28;20441;-71
2021/05/21 12:36:24;;;;;;;4.27;1.33;;;18.50;85.80;;;;;;5013885;28;20418;-70
2021/05/21 12:38:58;;;;;;;3.53;0.70;;;18.40;86.30;;;;;;4995240;28;20452;-70
2021/05/21 12:41:26;;;;;;;3.20;0.40;;;18.30;85.90;;;;;;5014274;28;20479;-67
2021/05/21 12:43:52;;;;;;;3.20;0.60;;;18.30;85.80;;;;;;5029644;28;20449;-66
2021/05/21 12:46:18;;;;;;;4.27;0.53;;;18.30;85.50;;;;;;5032595;28;20434;-65
2021/05/21 12:48:47;;;;;;;3.60;0.47;;;18.20;85.60;;;;;;5008799;28;20560;-67
2021/05/21 12:51:14;;;;;;;3.30;0.60;;;18.30;86.30;;;;;;5013974;28;20194;-68
2021/05/21 12:53:40;;;;;;;3.20;0.50;;;18.20;84.90;;;;;;5018063;28;20848;-67
2021/05/21 12:56:06;;;;;;;3.60;0.80;;;18.10;84.90;;;;;;4994405;28;20523;-68
2021/05/21 12:58:43;;;;;;;3.87;1.10;;;18.20;86.50;;;;;;4996367;28;20410;-63